sensor_id;sensor_type;location;lat;lon;timestamp;pressure;altitude;pressure_sealevel;temperature;humidity
13734;BME280;43298;52.560;13.508;2023-03-05T00:01:42;100892.66;;;3.50;100.00
13734;BME280;43298;52.560;13.508;2023-03-05T00:04:13;100894.44;;;3.45;100.00
13734;BME280;43298;52.560;13.508;2023-03-05T00:06:39;100892.78;;;3.40;100.00
13734;BME280;43298;52.560;13.508;2023-03-05T00:09:06;100878.41;;;3.30;100.00
13734;BME280;43298;52.560;13.508;2023-03-05T00:11:32;100877.63;;;3.23;100.00
13734;BME280;43298;52.560;13.508;2023-03-05T00:13:59;100869.97;;;3.20;100.00
13734;BME280;43298;52.560;13.508;2023-03-05T00:16:27;100864.88;;;3.18;100.00
13734;BME280;43298;52.560;13.508;2023-03-05T00:18:55;100864.13;;;3.12;100.00
13734;BME280;43298;52.560;13.508;2023-03-05T00:21:29;100865.06;;;2.99;100.00
13734;BME280;43298;52.560;13.508;2023-03-05T00:23:57;100861.78;;;2.88;100.00
13734;BME280;43298;52.560;13.508;2023-03-05T00:26:25;100857.56;;;2.82;100.00
13734;BME280;43298;52.560;13.508;2023-03-05T00:28:51;100846.59;;;2.71;100.00
13734;BME280;43298;52.560;13.508;2023-03-05T00:31:22;100843.25;;;2.63;100.00
13734;BME280;43298;52.560;13.508;2023-03-05T00:33:53;100836.47;;;2.59;100.00
13734;BME280;43298;52.560;13.508;2023-03-05T00:36:20;100831.44;;;2.55;100.00
13734;BME280;43298;52.560;13.508;2023-03-05T00:38:46;100831.41;;;2.56;100.00
13734;BME280;43298;52.560;13.508;2023-03-05T00:41:12;100824.59;;;2.52;100.00
13734;BME280;43298;52.560;13.508;2023-03-05T00:43:37;100816.97;;;2.51;100.00
13734;BME280;43298;52.560;13.508;2023-03-05T00:46:03;100819.56;;;2.48;100.00
13734;BME280;43298;52.560;13.508;2023-03-05T00:48:29;100811.03;;;2.50;100.00
13734;BME280;43298;52.560;13.508;2023-03-05T00:50:55;100811.88;;;2.51;100.00
13734;BME280;43298;52.560;13.508;2023-03-05T00:53:21;100811.84;;;2.52;100.00
13734;BME280;43298;52.560;13.508;2023-03-05T00:55:47;100805.91;;;2.53;100.00
13734;BME280;43298;52.560;13.508;2023-03-05T00:58:13;100800.81;;;2.55;100.00
13734;BME280;43298;52.560;13.508;2023-03-05T01:00:39;100784.63;;;2.54;100.00
13734;BME280;43298;52.560;13.508;2023-03-05T01:03:05;100799.91;;;2.59;100.00
13734;BME280;43298;52.560;13.508;2023-03-05T01:05:32;100795.63;;;2.61;100.00
13734;BME280;43298;52.560;13.508;2023-03-05T01:07:58;100786.25;;;2.63;100.00
13734;BME280;43298;52.560;13.508;2023-03-05T01:10:24;100779.47;;;2.62;100.00
13734;BME280;43298;52.560;13.508;2023-03-05T01:12:55;100786.28;;;2.61;100.00
13734;BME280;43298;52.560;13.508;2023-03-05T01:15:23;100778.63;;;2.58;100.00
13734;BME280;43298;52.560;13.508;2023-03-05T01:17:49;100777.75;;;2.59;100.00
13734;BME280;43298;52.560;13.508;2023-03-05T01:20:18;100771.81;;;2.60;100.00
13734;BME280;43298;52.560;13.508;2023-03-05T01:22:44;100769.25;;;2.62;100.00
13734;BME280;43298;52.560;13.508;2023-03-05T01:25:12;100776.06;;;2.60;100.00
13734;BME280;43298;52.560;13.508;2023-03-05T01:27:38;100772.66;;;2.61;100.00
13734;BME280;43298;52.560;13.508;2023-03-05T01:30:05;100768.41;;;2.61;100.00
13734;BME280;43298;52.560;13.508;2023-03-05T01:32:34;100761.56;;;2.63;100.00
13734;BME280;43298;52.560;13.508;2023-03-05T01:35:01;100756.44;;;2.65;100.00
13734;BME280;43298;52.560;13.508;2023-03-05T01:37:28;100763.28;;;2.64;100.00
13734;BME280;43298;52.560;13.508;2023-03-05T01:39:54;100746.22;;;2.66;100.00
13734;BME280;43298;52.560;13.508;2023-03-05T01:42:19;100745.41;;;2.66;100.00
13734;BME280;43298;52.560;13.508;2023-03-05T01:45:18;100739.44;;;2.64;100.00
13734;BME280;43298;52.560;13.508;2023-03-05T01:47:44;100745.41;;;2.64;100.00
13734;BME280;43298;52.560;13.508;2023-03-05T01:50:19;100731.81;;;2.59;100.00
13734;BME280;43298;52.560;13.508;2023-03-05T01:53:02;100738.69;;;2.54;100.00
13734;BME280;43298;52.560;13.508;2023-03-05T01:55:30;100730.16;;;2.58;100.00
13734;BME280;43298;52.560;13.508;2023-03-05T01:58:05;100730.19;;;2.52;100.00
13734;BME280;43298;52.560;13.508;2023-03-05T02:00:46;100727.72;;;2.48;100.00
13734;BME280;43298;52.560;13.508;2023-03-05T02:03:13;100736.22;;;2.45;100.00
13734;BME280;43298;52.560;13.508;2023-03-05T02:05:41;100727.75;;;2.42;100.00
13734;BME280;43298;52.560;13.508;2023-03-05T02:08:13;100724.34;;;2.41;100.00
13734;BME280;43298;52.560;13.508;2023-03-05T02:10:43;100723.53;;;2.38;100.00
13734;BME280;43298;52.560;13.508;2023-03-05T02:13:23;100715.91;;;2.33;100.00
13734;BME280;43298;52.560;13.508;2023-03-05T02:15:52;100721.91;;;2.31;100.00
13734;BME280;43298;52.560;13.508;2023-03-05T02:18:20;100724.50;;;2.25;100.00
13734;BME280;43298;52.560;13.508;2023-03-05T02:23:32;100718.59;;;2.21;100.00
13734;BME280;43298;52.560;13.508;2023-03-05T02:25:58;100717.75;;;2.18;100.00
13734;BME280;43298;52.560;13.508;2023-03-05T02:28:45;100722.84;;;2.16;100.00
13734;BME280;43298;52.560;13.508;2023-03-05T02:31:18;100724.59;;;2.16;100.00
13734;BME280;43298;52.560;13.508;2023-03-05T02:33:45;100714.41;;;2.13;100.00
13734;BME280;43298;52.560;13.508;2023-03-05T02:36:12;100713.56;;;2.11;100.00
13734;BME280;43298;52.560;13.508;2023-03-05T02:38:39;100706.75;;;2.11;100.00
13734;BME280;43298;52.560;13.508;2023-03-05T02:41:05;100713.53;;;2.14;100.00
13734;BME280;43298;52.560;13.508;2023-03-05T02:43:31;100705.03;;;2.12;100.00
13734;BME280;43298;52.560;13.508;2023-03-05T02:45:57;100698.25;;;2.11;100.00
13734;BME280;43298;52.560;13.508;2023-03-05T02:48:23;100695.72;;;2.09;100.00
13734;BME280;43298;52.560;13.508;2023-03-05T02:50:48;100685.53;;;2.06;100.00
13734;BME280;43298;52.560;13.508;2023-03-05T02:53:14;100699.13;;;2.08;100.00
13734;BME280;43298;52.560;13.508;2023-03-05T02:55:40;100690.63;;;2.06;100.00
13734;BME280;43298;52.560;13.508;2023-03-05T02:58:06;100690.69;;;2.03;100.00
13734;BME280;43298;52.560;13.508;2023-03-05T03:00:32;100688.94;;;2.07;100.00
13734;BME280;43298;52.560;13.508;2023-03-05T03:02:58;100678.75;;;2.05;100.00
13734;BME280;43298;52.560;13.508;2023-03-05T03:05:24;100684.72;;;2.06;100.00
13734;BME280;43298;52.560;13.508;2023-03-05T03:07:50;100681.28;;;2.07;100.00
13734;BME280;43298;52.560;13.508;2023-03-05T03:10:16;100694.03;;;2.08;100.00
13734;BME280;43298;52.560;13.508;2023-03-05T03:12:43;100680.44;;;2.06;100.00
13734;BME280;43298;52.560;13.508;2023-03-05T03:15:13;100682.97;;;2.06;100.00
13734;BME280;43298;52.560;13.508;2023-03-05T03:17:39;100675.34;;;2.06;100.00
13734;BME280;43298;52.560;13.508;2023-03-05T03:20:08;100676.19;;;2.05;100.00
13734;BME280;43298;52.560;13.508;2023-03-05T03:22:34;100673.66;;;2.04;100.00
13734;BME280;43298;52.560;13.508;2023-03-05T03:25:02;100672.78;;;2.06;100.00
13734;BME280;43298;52.560;13.508;2023-03-05T03:27:27;100661.75;;;2.07;100.00
13734;BME280;43298;52.560;13.508;2023-03-05T03:29:53;100663.41;;;2.10;100.00
13734;BME280;43298;52.560;13.508;2023-03-05T03:32:19;100659.19;;;2.07;100.00
13734;BME280;43298;52.560;13.508;2023-03-05T03:34:45;100645.56;;;2.11;100.00
13734;BME280;43298;52.560;13.508;2023-03-05T03:37:13;100655.75;;;2.14;100.00
13734;BME280;43298;52.560;13.508;2023-03-05T03:39:39;100647.25;;;2.11;100.00
13734;BME280;43298;52.560;13.508;2023-03-05T03:42:05;100646.38;;;2.12;100.00
13734;BME280;43298;52.560;13.508;2023-03-05T03:44:31;100649.78;;;2.15;100.00
13734;BME280;43298;52.560;13.508;2023-03-05T03:46:57;100646.34;;;2.15;100.00
13734;BME280;43298;52.560;13.508;2023-03-05T03:49:25;100641.28;;;2.13;100.00
13734;BME280;43298;52.560;13.508;2023-03-05T03:51:52;100640.47;;;2.11;100.00
13734;BME280;43298;52.560;13.508;2023-03-05T03:54:20;100634.47;;;2.15;100.00
13734;BME280;43298;52.560;13.508;2023-03-05T03:56:46;100628.47;;;2.18;100.00
13734;BME280;43298;52.560;13.508;2023-03-05T03:59:12;100628.47;;;2.18;100.00
13734;BME280;43298;52.560;13.508;2023-03-05T04:01:38;100629.34;;;2.18;100.00
13734;BME280;43298;52.560;13.508;2023-03-05T04:04:05;100633.56;;;2.19;100.00
13734;BME280;43298;52.560;13.508;2023-03-05T04:06:32;100625.94;;;2.19;100.00
13734;BME280;43298;52.560;13.508;2023-03-05T04:08:58;100631.84;;;2.23;100.00
13734;BME280;43298;52.560;13.508;2023-03-05T04:11:24;100631.03;;;2.19;100.00
13734;BME280;43298;52.560;13.508;2023-03-05T04:13:50;100619.13;;;2.20;100.00
13734;BME280;43298;52.560;13.508;2023-03-05T04:16:16;100619.97;;;2.19;100.00
13734;BME280;43298;52.560;13.508;2023-03-05T04:18:43;100624.25;;;2.17;100.00
13734;BME280;43298;52.560;13.508;2023-03-05T04:21:10;100612.34;;;2.17;100.00
13734;BME280;43298;52.560;13.508;2023-03-05T04:23:36;100618.34;;;2.12;100.00
13734;BME280;43298;52.560;13.508;2023-03-05T04:26:02;100610.69;;;2.12;100.00
13734;BME280;43298;52.560;13.508;2023-03-05T04:28:28;100614.97;;;2.11;100.00
13734;BME280;43298;52.560;13.508;2023-03-05T04:30:54;100603.13;;;2.06;100.00
13734;BME280;43298;52.560;13.508;2023-03-05T04:33:20;100604.81;;;2.04;100.00
13734;BME280;43298;52.560;13.508;2023-03-05T04:35:46;100596.34;;;2.02;100.00
13734;BME280;43298;52.560;13.508;2023-03-05T04:38:12;100604.00;;;2.03;100.00
13734;BME280;43298;52.560;13.508;2023-03-05T04:40:38;100596.38;;;1.99;100.00
13734;BME280;43298;52.560;13.508;2023-03-05T04:43:04;100595.53;;;1.95;100.00
13734;BME280;43298;52.560;13.508;2023-03-05T04:45:31;100587.09;;;1.93;100.00
13734;BME280;43298;52.560;13.508;2023-03-05T04:47:57;100589.63;;;1.95;100.00
13734;BME280;43298;52.560;13.508;2023-03-05T04:50:23;100584.56;;;1.92;100.00
13734;BME280;43298;52.560;13.508;2023-03-05T04:52:49;100582.00;;;1.90;100.00
13734;BME280;43298;52.560;13.508;2023-03-05T04:55:16;100580.34;;;1.89;100.00
13734;BME280;43298;52.560;13.508;2023-03-05T04:57:43;100584.56;;;1.89;100.00
13734;BME280;43298;52.560;13.508;2023-03-05T05:00:12;100589.66;;;1.89;100.00
13734;BME280;43298;52.560;13.508;2023-03-05T05:02:44;100580.34;;;1.86;100.00
13734;BME280;43298;52.560;13.508;2023-03-05T05:05:13;100576.13;;;1.84;100.00
13734;BME280;43298;52.560;13.508;2023-03-05T05:07:39;100580.38;;;1.85;100.00
13734;BME280;43298;52.560;13.508;2023-03-05T05:10:06;100577.00;;;1.80;100.00
13734;BME280;43298;52.560;13.508;2023-03-05T05:12:34;100586.34;;;1.84;100.00
13734;BME280;43298;52.560;13.508;2023-03-05T05:15:00;100583.78;;;1.85;100.00
13734;BME280;43298;52.560;13.508;2023-03-05T05:17:26;100573.56;;;1.85;100.00
13734;BME280;43298;52.560;13.508;2023-03-05T05:19:56;100580.34;;;1.86;100.00
13734;BME280;43298;52.560;13.508;2023-03-05T05:22:22;100574.41;;;1.83;100.00
13734;BME280;43298;52.560;13.508;2023-03-05T05:24:48;100576.97;;;1.84;100.00
13734;BME280;43298;52.560;13.508;2023-03-05T05:27:14;100573.59;;;1.82;100.00
13734;BME280;43298;52.560;13.508;2023-03-05T05:29:40;100567.63;;;1.83;100.00
13734;BME280;43298;52.560;13.508;2023-03-05T05:32:06;100566.78;;;1.81;100.00
13734;BME280;43298;52.560;13.508;2023-03-05T05:34:32;100572.78;;;1.76;100.00
13734;BME280;43298;52.560;13.508;2023-03-05T05:36:58;100565.22;;;1.71;100.00
13734;BME280;43298;52.560;13.508;2023-03-05T05:39:24;100561.81;;;1.68;100.00
13734;BME280;43298;52.560;13.508;2023-03-05T05:41:52;100576.34;;;1.60;100.00
13734;BME280;43298;52.560;13.508;2023-03-05T05:44:18;100578.03;;;1.58;100.00
13734;BME280;43298;52.560;13.508;2023-03-05T05:46:44;100575.56;;;1.50;100.00
13734;BME280;43298;52.560;13.508;2023-03-05T05:49:10;100577.25;;;1.50;100.00
13734;BME280;43298;52.560;13.508;2023-03-05T05:51:36;100585.75;;;1.53;100.00
13734;BME280;43298;52.560;13.508;2023-03-05T05:54:01;100578.94;;;1.49;100.00
13734;BME280;43298;52.560;13.508;2023-03-05T05:56:27;100579.91;;;1.41;100.00
13734;BME280;43298;52.560;13.508;2023-03-05T05:58:53;100589.22;;;1.43;100.00
13734;BME280;43298;52.560;13.508;2023-03-05T06:01:24;100589.19;;;1.45;100.00
13734;BME280;43298;52.560;13.508;2023-03-05T06:03:51;100591.78;;;1.40;100.00
13734;BME280;43298;52.560;13.508;2023-03-05T06:06:20;100581.56;;;1.45;100.00
13734;BME280;43298;52.560;13.508;2023-03-05T06:08:47;100579.81;;;1.47;100.00
13734;BME280;43298;52.560;13.508;2023-03-05T06:11:15;100571.31;;;1.49;100.00
13734;BME280;43298;52.560;13.508;2023-03-05T06:13:42;100573.00;;;1.52;100.00
13734;BME280;43298;52.560;13.508;2023-03-05T06:16:13;100573.84;;;1.52;100.00
13734;BME280;43298;52.560;13.508;2023-03-05T06:18:40;100577.22;;;1.57;100.00
13734;BME280;43298;52.560;13.508;2023-03-05T06:21:10;100568.69;;;1.61;100.00
13734;BME280;43298;52.560;13.508;2023-03-05T06:23:36;100566.97;;;1.62;100.00
13734;BME280;43298;52.560;13.508;2023-03-05T06:26:05;100571.22;;;1.63;100.00
13734;BME280;43298;52.560;13.508;2023-03-05T06:28:32;100568.69;;;1.61;100.00
13734;BME280;43298;52.560;13.508;2023-03-05T06:31:08;100578.00;;;1.64;100.00
13734;BME280;43298;52.560;13.508;2023-03-05T06:33:35;100568.66;;;1.64;100.00
13734;BME280;43298;52.560;13.508;2023-03-05T06:36:06;100575.38;;;1.73;100.00
13734;BME280;43298;52.560;13.508;2023-03-05T06:38:33;100566.78;;;1.81;100.00
13734;BME280;43298;52.560;13.508;2023-03-05T06:41:06;100580.25;;;1.95;100.00
13734;BME280;43298;52.560;13.508;2023-03-05T06:43:35;100569.97;;;2.04;100.00
13734;BME280;43298;52.560;13.508;2023-03-05T06:46:15;100569.88;;;2.13;100.00
13734;BME280;43298;52.560;13.508;2023-03-05T06:48:42;100564.75;;;2.16;100.00
13734;BME280;43298;52.560;13.508;2023-03-05T06:51:29;100572.34;;;2.21;100.00
13734;BME280;43298;52.560;13.508;2023-03-05T06:54:09;100564.63;;;2.28;100.00
13734;BME280;43298;52.560;13.508;2023-03-05T06:56:38;100573.00;;;2.39;100.00
13734;BME280;43298;52.560;13.508;2023-03-05T06:59:06;100562.78;;;2.42;100.00
13734;BME280;43298;52.560;13.508;2023-03-05T07:01:32;100562.84;;;2.35;100.00
13734;BME280;43298;52.560;13.508;2023-03-05T07:03:58;100565.41;;;2.33;100.00
13734;BME280;43298;52.560;13.508;2023-03-05T07:06:25;100561.16;;;2.35;100.00
13734;BME280;43298;52.560;13.508;2023-03-05T07:08:56;100569.63;;;2.37;100.00
13734;BME280;43298;52.560;13.508;2023-03-05T07:11:23;100569.56;;;2.43;100.00
13734;BME280;43298;52.560;13.508;2023-03-05T07:13:49;100573.72;;;2.50;100.00
13734;BME280;43298;52.560;13.508;2023-03-05T07:16:25;100568.50;;;2.59;100.00
13734;BME280;43298;52.560;13.508;2023-03-05T07:18:52;100572.69;;;2.63;100.00
13734;BME280;43298;52.560;13.508;2023-03-05T07:21:21;100575.31;;;2.60;100.00
13734;BME280;43298;52.560;13.508;2023-03-05T07:23:48;100578.63;;;2.65;100.00
13734;BME280;43298;52.560;13.508;2023-03-05T07:26:15;100577.78;;;2.63;100.00
13734;BME280;43298;52.560;13.508;2023-03-05T07:28:41;100584.63;;;2.64;100.00
13734;BME280;43298;52.560;13.508;2023-03-05T07:31:19;100581.16;;;2.68;100.00
13734;BME280;43298;52.560;13.508;2023-03-05T07:33:49;100593.06;;;2.66;100.00
13734;BME280;43298;52.560;13.508;2023-03-05T07:36:15;100585.34;;;2.72;100.00
13734;BME280;43298;52.560;13.508;2023-03-05T07:38:42;100587.88;;;2.75;100.00
13734;BME280;43298;52.560;13.508;2023-03-05T07:41:15;100578.41;;;2.83;100.00
13734;BME280;43298;52.560;13.508;2023-03-05T07:43:46;100584.25;;;2.90;100.00
13734;BME280;43298;52.560;13.508;2023-03-05T07:46:15;100590.16;;;2.96;100.00
13734;BME280;43298;52.560;13.508;2023-03-05T07:48:41;100597.78;;;2.99;100.00
13734;BME280;43298;52.560;13.508;2023-03-05T07:51:14;100588.34;;;3.03;100.00
13734;BME280;43298;52.560;13.508;2023-03-05T07:53:43;100592.50;;;3.11;100.00
13734;BME280;43298;52.560;13.508;2023-03-05T07:56:09;100592.53;;;3.08;100.00
13734;BME280;43298;52.560;13.508;2023-03-05T07:58:35;100598.31;;;3.21;100.00
13734;BME280;43298;52.560;13.508;2023-03-05T08:01:02;100588.75;;;3.34;100.00
13734;BME280;43298;52.560;13.508;2023-03-05T08:03:28;100595.50;;;3.38;100.00
13734;BME280;43298;52.560;13.508;2023-03-05T08:05:54;100589.69;;;3.28;100.00
13734;BME280;43298;52.560;13.508;2023-03-05T08:08:20;100597.41;;;3.23;100.00
13734;BME280;43298;52.560;13.508;2023-03-05T08:10:46;100594.09;;;3.18;100.00
13734;BME280;43298;52.560;13.508;2023-03-05T08:13:12;100585.00;;;2.99;100.00
13734;BME280;43298;52.560;13.508;2023-03-05T08:15:38;100590.91;;;3.01;100.00
13734;BME280;43298;52.560;13.508;2023-03-05T08:18:04;100597.66;;;3.07;100.00
13734;BME280;43298;52.560;13.508;2023-03-05T08:20:34;100589.97;;;3.08;100.00
13734;BME280;43298;52.560;13.508;2023-03-05T08:23:00;100595.81;;;3.16;100.00
13734;BME280;43298;52.560;13.508;2023-03-05T08:25:27;100587.97;;;3.30;100.00
13734;BME280;43298;52.560;13.508;2023-03-05T08:27:53;100593.81;;;3.37;100.00
13734;BME280;43298;52.560;13.508;2023-03-05T08:30:20;100589.34;;;3.52;100.00
13734;BME280;43298;52.560;13.508;2023-03-05T08:32:48;100585.66;;;3.68;100.00
13734;BME280;43298;52.560;13.508;2023-03-05T08:35:14;100582.13;;;3.75;100.00
13734;BME280;43298;52.560;13.508;2023-03-05T08:37:40;100578.69;;;3.78;100.00
13734;BME280;43298;52.560;13.508;2023-03-05T08:40:06;100575.28;;;3.77;100.00
13734;BME280;43298;52.560;13.508;2023-03-05T08:42:32;100573.69;;;3.72;100.00
13734;BME280;43298;52.560;13.508;2023-03-05T08:44:58;100573.16;;;3.50;100.00
13734;BME280;43298;52.560;13.508;2023-03-05T08:47:24;100575.88;;;3.41;100.00
13734;BME280;43298;52.560;13.508;2023-03-05T08:49:51;100564.47;;;3.62;100.00
13734;BME280;43298;52.560;13.508;2023-03-05T08:52:21;100566.53;;;4.36;100.00
13734;BME280;43298;52.560;13.508;2023-03-05T08:54:47;100555.94;;;4.54;100.00
13734;BME280;43298;52.560;13.508;2023-03-05T08:57:13;100545.94;;;4.83;100.00
13734;BME280;43298;52.560;13.508;2023-03-05T08:59:39;100547.66;;;5.19;100.00
13734;BME280;43298;52.560;13.508;2023-03-05T09:02:04;100547.34;;;5.67;100.00
13734;BME280;43298;52.560;13.508;2023-03-05T09:04:30;100533.44;;;5.42;100.00
13734;BME280;43298;52.560;13.508;2023-03-05T09:06:57;100536.53;;;5.55;100.00
13734;BME280;43298;52.560;13.508;2023-03-05T09:09:23;100529.50;;;5.96;100.00
13734;BME280;43298;52.560;13.508;2023-03-05T09:11:49;100537.00;;;5.70;100.00
13734;BME280;43298;52.560;13.508;2023-03-05T09:14:16;100538.28;;;5.19;100.00
13734;BME280;43298;52.560;13.508;2023-03-05T09:16:42;100531.16;;;4.94;100.00
13734;BME280;43298;52.560;13.508;2023-03-05T09:19:08;100527.56;;;4.63;100.00
13734;BME280;43298;52.560;13.508;2023-03-05T09:21:35;100529.38;;;4.59;100.00
13734;BME280;43298;52.560;13.508;2023-03-05T09:24:01;100531.22;;;4.53;100.00
13734;BME280;43298;52.560;13.508;2023-03-05T09:26:28;100520.53;;;4.33;100.00
13734;BME280;43298;52.560;13.508;2023-03-05T09:28:54;100515.47;;;4.30;100.00
13734;BME280;43298;52.560;13.508;2023-03-05T09:31:20;100523.06;;;4.34;100.00
13734;BME280;43298;52.560;13.508;2023-03-05T09:33:47;100515.75;;;4.15;100.00
13734;BME280;43298;52.560;13.508;2023-03-05T09:36:24;100515.66;;;4.21;100.00
13734;BME280;43298;52.560;13.508;2023-03-05T09:38:51;100512.19;;;4.23;100.00
13734;BME280;43298;52.560;13.508;2023-03-05T09:41:59;100521.25;;;4.38;100.00
13734;BME280;43298;52.560;13.508;2023-03-05T09:50:58;100517.97;;;4.33;100.00
13734;BME280;43298;52.560;13.508;2023-03-05T09:53:54;100514.56;;;4.32;100.00
13734;BME280;43298;52.560;13.508;2023-03-05T09:56:49;100510.81;;;4.06;100.00
13734;BME280;43298;52.560;13.508;2023-03-05T09:59:39;100511.09;;;3.91;100.00
13734;BME280;43298;52.560;13.508;2023-03-05T10:02:33;100519.75;;;3.84;100.00
13734;BME280;43298;52.560;13.508;2023-03-05T10:05:15;100516.63;;;3.68;100.00
13734;BME280;43298;52.560;13.508;2023-03-05T10:07:54;100520.13;;;3.63;100.00
13734;BME280;43298;52.560;13.508;2023-03-05T10:10:42;100522.66;;;3.64;100.00
13734;BME280;43298;52.560;13.508;2023-03-05T10:13:23;100520.09;;;3.66;100.00
13734;BME280;43298;52.560;13.508;2023-03-05T10:16:39;100513.06;;;3.77;100.00
13734;BME280;43298;52.560;13.508;2023-03-05T10:19:59;100501.94;;;3.79;100.00
13734;BME280;43298;52.560;13.508;2023-03-05T10:28:13;100502.78;;;3.80;100.00
13734;BME280;43298;52.560;13.508;2023-03-05T10:31:26;100503.56;;;3.85;100.00
13734;BME280;43298;52.560;13.508;2023-03-05T10:43:01;100499.56;;;4.14;100.00
13734;BME280;43298;52.560;13.508;2023-03-05T10:45:25;100495.59;;;4.00;100.00
13734;BME280;43298;52.560;13.508;2023-03-05T10:54:09;100490.06;;;3.77;100.00
13734;BME280;43298;52.560;13.508;2023-03-05T10:56:37;100481.34;;;3.87;100.00
13734;BME280;43298;52.560;13.508;2023-03-05T10:59:03;100489.31;;;4.16;100.00
13734;BME280;43298;52.560;13.508;2023-03-05T11:01:29;100483.50;;;4.08;100.00
13734;BME280;43298;52.560;13.508;2023-03-05T11:04:06;100484.75;;;4.30;100.00
13734;BME280;43298;52.560;13.508;2023-03-05T11:06:41;100476.41;;;4.22;100.00
13734;BME280;43298;52.560;13.508;2023-03-05T11:09:30;100478.31;;;4.11;100.00
13734;BME280;43298;52.560;13.508;2023-03-05T11:12:13;100488.00;;;3.95;100.00
13734;BME280;43298;52.560;13.508;2023-03-05T11:17:43;100493.19;;;3.45;100.00
13734;BME280;43298;52.560;13.508;2023-03-05T11:23:21;100502.09;;;3.22;100.00
13734;BME280;43298;52.560;13.508;2023-03-05T11:25:59;100490.53;;;2.99;100.00
13734;BME280;43298;52.560;13.508;2023-03-05T11:28:35;100492.19;;;3.00;100.00
13734;BME280;43298;52.560;13.508;2023-03-05T11:34:00;100482.72;;;3.07;100.00
13734;BME280;43298;52.560;13.508;2023-03-05T11:36:35;100476.53;;;3.22;100.00
13734;BME280;43298;52.560;13.508;2023-03-05T11:39:14;100483.25;;;3.29;100.00
13734;BME280;43298;52.560;13.508;2023-03-05T11:44:45;100474.66;;;3.33;100.00
13734;BME280;43298;52.560;13.508;2023-03-05T11:47:59;100465.97;;;3.43;100.00
13734;BME280;43298;52.560;13.508;2023-03-05T11:50:25;100462.22;;;3.62;100.00
13734;BME280;43298;52.560;13.508;2023-03-05T11:52:56;100455.25;;;3.70;100.00
13734;BME280;43298;52.560;13.508;2023-03-05T11:55:29;100452.81;;;4.06;100.00
13734;BME280;43298;52.560;13.508;2023-03-05T12:00:57;100445.56;;;5.02;100.00
13734;BME280;43298;52.560;13.508;2023-03-05T12:03:35;100448.94;;;4.68;100.00
13734;BME280;43298;52.560;13.508;2023-03-05T12:06:09;100431.03;;;5.03;100.00
13734;BME280;43298;52.560;13.508;2023-03-05T12:08:43;100438.13;;;4.93;100.00
13734;BME280;43298;52.560;13.508;2023-03-05T12:11:30;100414.13;;;4.96;100.00
13734;BME280;43298;52.560;13.508;2023-03-05T12:14:05;100415.94;;;4.91;100.00
13734;BME280;43298;52.560;13.508;2023-03-05T12:19:37;100402.78;;;5.06;100.00
13734;BME280;43298;52.560;13.508;2023-03-05T12:22:22;100410.75;;;4.94;100.00
13734;BME280;43298;52.560;13.508;2023-03-05T12:24:49;100394.84;;;4.81;100.00
13734;BME280;43298;52.560;13.508;2023-03-05T12:27:36;100394.81;;;4.83;100.00
13734;BME280;43298;52.560;13.508;2023-03-05T12:30:03;100397.31;;;4.86;100.00
13734;BME280;43298;52.560;13.508;2023-03-05T12:38:03;100385.34;;;4.50;100.00
13734;BME280;43298;52.560;13.508;2023-03-05T12:40:33;100379.91;;;4.63;100.00
13734;BME280;43298;52.560;13.508;2023-03-05T12:43:30;100388.22;;;4.73;100.00
13734;BME280;43298;52.560;13.508;2023-03-05T12:46:25;100381.56;;;4.66;100.00
13734;BME280;43298;52.560;13.508;2023-03-05T12:48:53;100378.75;;;4.76;100.00
13734;BME280;43298;52.560;13.508;2023-03-05T12:51:37;100376.44;;;4.66;100.00
13734;BME280;43298;52.560;13.508;2023-03-05T12:54:33;100374.41;;;4.78;100.00
13734;BME280;43298;52.560;13.508;2023-03-05T12:57:18;100373.91;;;4.99;100.00
13734;BME280;43298;52.560;13.508;2023-03-05T13:00:01;100372.19;;;5.00;100.00
13734;BME280;43298;52.560;13.508;2023-03-05T13:02:38;100367.84;;;5.02;100.00
13734;BME280;43298;52.560;13.508;2023-03-05T13:05:28;100360.25;;;4.99;100.00
13734;BME280;43298;52.560;13.508;2023-03-05T13:10:40;100356.66;;;4.72;100.00
13734;BME280;43298;52.560;13.508;2023-03-05T13:13:13;100367.94;;;4.65;100.00
13734;BME280;43298;52.560;13.508;2023-03-05T13:15:48;100363.53;;;4.70;100.00
13734;BME280;43298;52.560;13.508;2023-03-05T13:18:21;100360.50;;;4.88;100.00
13734;BME280;43298;52.560;13.508;2023-03-05T13:21:06;100353.81;;;4.83;100.00
13734;BME280;43298;52.560;13.508;2023-03-05T13:23:34;100351.22;;;4.84;100.00
13734;BME280;43298;52.560;13.508;2023-03-05T13:26:17;100351.13;;;4.89;100.00
13734;BME280;43298;52.560;13.508;2023-03-05T13:29:13;100346.75;;;4.92;100.00
13734;BME280;43298;52.560;13.508;2023-03-05T13:32:01;100348.81;;;4.78;100.00
13734;BME280;43298;52.560;13.508;2023-03-05T13:34:34;100344.47;;;4.82;100.00
13734;BME280;43298;52.560;13.508;2023-03-05T13:37:23;100346.78;;;4.56;100.00
13734;BME280;43298;52.560;13.508;2023-03-05T13:40:28;100344.03;;;4.65;100.00
13734;BME280;43298;52.560;13.508;2023-03-05T13:43:07;100346.06;;;4.51;100.00
13734;BME280;43298;52.560;13.508;2023-03-05T13:45:34;100352.16;;;4.47;100.00
13734;BME280;43298;52.560;13.508;2023-03-05T13:48:03;100355.69;;;4.41;100.00
13734;BME280;43298;52.560;13.508;2023-03-05T13:50:38;100353.84;;;4.46;100.00
13734;BME280;43298;52.560;13.508;2023-03-05T13:53:26;100357.19;;;4.50;100.00
13734;BME280;43298;52.560;13.508;2023-03-05T13:55:57;100358.16;;;4.46;100.00